Dutch Harbor, AK

8:08 PM AKDT on April 27, 2015 (GMT -0800)
Dutch Harbor | | Change Station
CLOSE
Current Station
Airport
Location: Dutch Harbor,
Elevation: 13 ft
Nearby Weather Stations

Elev 13 ft 53.90 °N, 166.54 °W | Updated 1 hour ago

Mostly Cloudy
Mostly Cloudy
42 °F
Feels Like 37 °F
N
9
Wind Variable Wind from WSW

Today
High -- | Low -- °F
--% Chance of Precip.
Yesterday
High -- | Low -- °F
Precip. -- in
7:38 AM 10:30 PM
Waxing Gibbous, 70% visible
Pressure 29.71 in
Visibility 10.0 miles
Clouds Mostly Cloudy 3700 ft
Windchill 37 °F
Dew Point 30 °F
Humidity 62%
Rainfall 0.04 in
Snow Depth Not available.
UV 2 out of 12
Pollen Not available.
Air Quality Not available.
Flu Activity Sporadic
METAR PADU 280256Z 25008KT 10SM BKN037 06/M01 A2969 RMK AO2 SLP060 RH T00561011 55003

More Conditions Fewer Conditions

Pressure 29.71 in
Visibility 10.0 miles
Clouds Mostly Cloudy 3700 ft
Windchill 37 °F
Dew Point 30 °F
Humidity 62%
Rainfall 0.04 in
Snow Depth Not available.
UV 2 out of 12
Pollen Not available.
Air Quality Not available.
Flu Activity Sporadic
METAR PADU 280256Z 25008KT 10SM BKN037 06/M01 A2969 RMK AO2 SLP060 RH T00561011 55003

More Conditions Fewer Conditions

10-Day Weather Forecast

Almanac

Astronomy

Apr. 27, 2015 Rise Set
Actual Time
Civil Twilight
Nautical Twilight
Astronomical Twilight
Moon
Length of Visible Light
Length of Day
Tomorrow will be .
, % of the Moon is Illuminated

Today's Extremes

State Highs State Lows

Community

WunderPhotos

Upload Photos

1,817,564 photos uploaded!

WunderBlogs® & News

Nearby

Air Quality

  Air Quality AQ Index Pollutant
Not available.

Snow Depth

Station Depth Elevation

Earthquake Activity

City Distance Mag. Time & Date
Minimum magnitude displayed is 2.5.

Coastal Water Temperatures

Place Temperature

Stations

Nearby Weather Stations

Station Location Temp. Windchill Dew Point Humidity Wind Precip. Elev Updated Type